Time;durP1;ratioP1;P1;durP2;ratioP2;P2;SDS_P1;SDS_P2;PMS_P1;PMS_P2;Temp;Humidity;BMP_temperature;BMP_pressure;BME280_temperature;BME280_humidity;BME280_pressure;Samples;Min_cycle;Max_cycle;Signal;HPM_P1;HPM_P2
2023/08/24 00:02:26;;;;;;;9.20;4.33;;;19.40;99.90;;;;;;5056800;28;20443;-72
2023/08/24 00:05:11;;;;;;;4.90;4.33;;;19.30;99.90;;;;;;5063856;28;20528;-72
2023/08/24 00:08:00;;;;;;;5.57;4.53;;;19.40;99.90;;;;;;5063638;28;20479;-72
2023/08/24 00:10:46;;;;;;;5.17;4.67;;;19.30;99.90;;;;;;5057691;28;20962;-72
2023/08/24 00:13:32;;;;;;;8.67;5.00;;;19.30;99.90;;;;;;5063397;28;21017;-72
2023/08/24 00:16:19;;;;;;;7.53;5.17;;;19.30;99.90;;;;;;5060345;28;20552;-72
2023/08/24 00:19:04;;;;;;;5.93;5.00;;;19.20;99.90;;;;;;5066991;28;20804;-72
2023/08/24 00:21:50;;;;;;;8.47;4.63;;;19.20;99.90;;;;;;5067191;28;20445;-72
2023/08/24 00:24:37;;;;;;;11.80;4.80;;;19.20;99.90;;;;;;5063420;28;21037;-72
2023/08/24 00:27:23;;;;;;;9.60;4.37;;;19.20;99.90;;;;;;5064507;28;21010;-72
2023/08/24 00:30:09;;;;;;;7.20;4.93;;;19.20;99.90;;;;;;5064930;28;20967;-72
2023/08/24 00:32:55;;;;;;;15.13;5.13;;;19.10;99.90;;;;;;5062079;28;20487;-73
2023/08/24 00:35:40;;;;;;;8.60;5.10;;;19.00;99.90;;;;;;5061952;28;20471;-71
2023/08/24 00:38:26;;;;;;;8.20;5.10;;;18.90;99.90;;;;;;5057342;28;20455;-71
2023/08/24 00:41:14;;;;;;;9.60;6.07;;;18.80;99.90;;;;;;5065318;28;20496;-71
2023/08/24 00:43:59;;;;;;;8.83;5.27;;;18.70;99.90;;;;;;5068727;28;20454;-71
2023/08/24 00:46:45;;;;;;;9.43;5.20;;;18.70;99.90;;;;;;5066747;28;20945;-71
2023/08/24 00:49:30;;;;;;;8.40;5.47;;;18.60;99.90;;;;;;5064437;28;20544;-71
2023/08/24 00:52:17;;;;;;;6.30;5.30;;;18.50;99.90;;;;;;5067797;28;20446;-71
2023/08/24 00:55:03;;;;;;;5.17;4.40;;;18.60;99.90;;;;;;5062610;28;20605;-71
2023/08/24 00:57:52;;;;;;;9.43;5.50;;;18.60;99.90;;;;;;5065377;28;20449;-71
2023/08/24 01:00:38;;;;;;;9.93;5.23;;;18.50;99.90;;;;;;5067840;28;20787;-70
2023/08/24 01:03:25;;;;;;;6.93;5.43;;;18.40;99.90;;;;;;5062771;28;20488;-71
2023/08/24 01:06:10;;;;;;;16.10;5.40;;;18.30;99.90;;;;;;5070910;28;20595;-70
2023/08/24 01:08:56;;;;;;;6.37;5.03;;;18.40;99.90;;;;;;5067740;28;20441;-71
2023/08/24 01:11:51;;;;;;;5.90;5.30;;;18.50;99.90;;;;;;5063008;28;20520;-71
2023/08/24 01:14:51;;;;;;;9.00;4.67;;;18.60;99.90;;;;;;5065614;28;20466;-71
2023/08/24 01:17:40;;;;;;;5.93;4.50;;;18.70;99.90;;;;;;5065430;28;20865;-71
2023/08/24 01:20:26;;;;;;;6.63;5.70;;;18.70;99.90;;;;;;5066686;28;20442;-71
2023/08/24 01:23:33;;;;;;;10.03;5.00;;;18.70;99.90;;;;;;5063377;28;20429;-71
2023/08/24 01:26:21;;;;;;;8.53;5.70;;;18.50;99.90;;;;;;5063722;28;20477;-71
2023/08/24 01:29:08;;;;;;;6.87;5.63;;;18.60;99.90;;;;;;5063381;28;20458;-71
2023/08/24 01:31:54;;;;;;;7.80;5.73;;;18.50;99.90;;;;;;5061333;28;20461;-70
2023/08/24 01:34:40;;;;;;;10.00;4.90;;;18.40;99.90;;;;;;5067457;28;20442;-70
2023/08/24 01:37:25;;;;;;;8.03;5.40;;;18.40;99.90;;;;;;5059341;28;20990;-71
2023/08/24 01:40:18;;;;;;;8.63;5.00;;;18.30;99.90;;;;;;5064809;28;20469;-71
2023/08/24 01:43:08;;;;;;;10.33;5.47;;;18.20;99.90;;;;;;5069298;28;20505;-71
2023/08/24 01:45:55;;;;;;;10.07;5.53;;;18.00;99.90;;;;;;5065431;28;20486;-70
2023/08/24 01:48:42;;;;;;;11.20;5.97;;;18.00;99.90;;;;;;5063849;28;20490;-71
2023/08/24 01:51:28;;;;;;;6.97;5.60;;;18.00;99.90;;;;;;5059451;28;20894;-71
2023/08/24 01:54:14;;;;;;;9.07;6.27;;;17.90;99.90;;;;;;5063587;28;20450;-71
2023/08/24 01:57:00;;;;;;;7.33;6.00;;;18.00;99.90;;;;;;5056808;28;20555;-71
2023/08/24 01:59:46;;;;;;;5.30;4.80;;;18.20;99.90;;;;;;5064115;28;20467;-71
2023/08/24 02:02:33;;;;;;;5.23;4.70;;;18.20;99.90;;;;;;5067381;28;20469;-70
2023/08/24 02:05:18;;;;;;;7.93;5.17;;;18.30;99.90;;;;;;5067649;28;20567;-70
2023/08/24 02:08:04;;;;;;;6.47;5.10;;;18.40;99.90;;;;;;5064095;28;20456;-70
2023/08/24 02:10:51;;;;;;;6.47;4.73;;;18.60;99.90;;;;;;5063773;28;20470;-71
2023/08/24 02:13:37;;;;;;;8.87;5.33;;;18.50;99.90;;;;;;5061456;28;20445;-71
2023/08/24 02:16:24;;;;;;;6.90;4.80;;;18.50;99.90;;;;;;5064231;28;20478;-70
2023/08/24 02:19:10;;;;;;;7.60;5.20;;;18.60;99.90;;;;;;5063113;28;20443;-71
2023/08/24 02:21:55;;;;;;;10.00;5.40;;;18.70;99.90;;;;;;5065151;28;20524;-71
2023/08/24 02:24:41;;;;;;;7.57;4.93;;;18.70;99.90;;;;;;5068504;28;20453;-71
2023/08/24 02:27:27;;;;;;;7.50;5.40;;;18.70;99.90;;;;;;5063349;28;20495;-72
2023/08/24 02:30:14;;;;;;;7.00;4.90;;;18.70;99.90;;;;;;5064192;28;20565;-71
2023/08/24 02:33:02;;;;;;;5.90;4.90;;;18.60;99.90;;;;;;5056864;28;20455;-71
2023/08/24 02:35:48;;;;;;;7.37;4.77;;;18.60;99.90;;;;;;5061667;28;20466;-70
2023/08/24 02:38:34;;;;;;;8.67;4.63;;;18.60;99.90;;;;;;5069937;28;20465;-71
2023/08/24 02:41:20;;;;;;;6.50;4.60;;;18.50;99.90;;;;;;5065504;28;20606;-70
2023/08/24 02:44:05;;;;;;;9.93;5.17;;;18.50;99.90;;;;;;5069420;28;20451;-71
2023/08/24 02:46:51;;;;;;;9.90;5.00;;;18.50;99.90;;;;;;5064399;28;20635;-72
2023/08/24 02:49:38;;;;;;;8.90;5.30;;;18.50;99.90;;;;;;5071862;28;20442;-71
2023/08/24 02:52:24;;;;;;;7.43;5.83;;;18.50;99.90;;;;;;5058301;28;20445;-70
2023/08/24 02:55:10;;;;;;;7.60;5.17;;;18.40;99.90;;;;;;5073986;28;20496;-71
2023/08/24 02:57:56;;;;;;;13.37;5.83;;;18.40;99.90;;;;;;5066987;28;20469;-70
2023/08/24 03:00:42;;;;;;;9.67;6.27;;;18.30;99.90;;;;;;5064238;28;20446;-72
2023/08/24 03:03:28;;;;;;;5.83;5.23;;;18.40;99.90;;;;;;5068783;28;21093;-71
2023/08/24 03:06:15;;;;;;;6.17;4.73;;;18.50;99.90;;;;;;5058566;28;20576;-71
2023/08/24 03:09:02;;;;;;;6.73;5.37;;;18.60;99.90;;;;;;5064409;28;20461;-71
2023/08/24 03:11:49;;;;;;;5.50;4.70;;;18.70;99.90;;;;;;5063894;28;20465;-72
2023/08/24 03:14:35;;;;;;;5.77;5.17;;;18.70;99.90;;;;;;5064383;28;20430;-71
2023/08/24 03:17:21;;;;;;;7.30;5.57;;;18.70;99.90;;;;;;5065406;28;20449;-70
2023/08/24 03:20:10;;;;;;;17.93;5.80;;;18.70;99.90;;;;;;5064161;28;20434;-71
2023/08/24 03:22:57;;;;;;;7.13;5.53;;;18.70;99.90;;;;;;5064120;28;20910;-71
2023/08/24 03:25:43;;;;;;;5.80;5.20;;;18.80;99.90;;;;;;5056364;28;20467;-71
2023/08/24 03:28:29;;;;;;;5.40;4.90;;;18.70;99.90;;;;;;5061962;28;20475;-70
2023/08/24 03:31:14;;;;;;;9.27;5.63;;;18.70;99.90;;;;;;5067752;28;21042;-71
2023/08/24 03:34:00;;;;;;;8.40;4.93;;;18.60;99.90;;;;;;5059354;28;20451;-71
2023/08/24 03:36:47;;;;;;;10.30;5.60;;;18.70;99.90;;;;;;5069640;28;20469;-71
2023/08/24 03:39:34;;;;;;;8.00;5.03;;;18.80;99.90;;;;;;5059850;28;20566;-71
2023/08/24 03:42:19;;;;;;;7.67;5.23;;;18.80;99.90;;;;;;5063176;28;20447;-71
2023/08/24 03:45:06;;;;;;;8.13;5.67;;;18.90;99.90;;;;;;5066313;28;21053;-70
2023/08/24 03:47:52;;;;;;;7.03;5.50;;;18.70;99.90;;;;;;5056182;28;20806;-71
2023/08/24 03:50:37;;;;;;;7.00;6.27;;;18.60;99.90;;;;;;5058886;28;20491;-71
2023/08/24 03:53:23;;;;;;;7.83;5.40;;;18.40;99.90;;;;;;5067717;28;20825;-71
2023/08/24 03:56:10;;;;;;;8.80;6.60;;;18.30;99.90;;;;;;5063429;28;20473;-70
2023/08/24 03:58:55;;;;;;;6.63;5.67;;;18.40;99.90;;;;;;5063318;28;20522;-72
2023/08/24 04:01:41;;;;;;;10.73;7.20;;;18.40;99.90;;;;;;5066827;28;20457;-70
2023/08/24 04:04:27;;;;;;;7.23;6.53;;;18.40;99.90;;;;;;5062691;28;20442;-71
2023/08/24 04:07:12;;;;;;;8.00;5.83;;;18.20;99.90;;;;;;5062957;28;20530;-71
2023/08/24 04:09:58;;;;;;;6.70;6.10;;;18.10;99.90;;;;;;5062754;28;20492;-71
2023/08/24 04:12:45;;;;;;;7.07;6.37;;;18.20;99.90;;;;;;5070778;28;20975;-71
2023/08/24 04:15:31;;;;;;;9.13;6.00;;;18.40;99.90;;;;;;5060859;28;21101;-71
2023/08/24 04:18:16;;;;;;;7.53;6.83;;;18.40;99.90;;;;;;5059397;28;20498;-70
2023/08/24 04:21:02;;;;;;;8.83;6.77;;;18.30;99.90;;;;;;5064991;28;20956;-70
2023/08/24 04:23:48;;;;;;;13.33;6.87;;;18.20;99.90;;;;;;5063942;28;20570;-71
2023/08/24 04:26:34;;;;;;;9.00;6.00;;;18.30;99.90;;;;;;5073249;28;21013;-72
2023/08/24 04:29:20;;;;;;;11.73;6.40;;;18.40;99.90;;;;;;5063484;28;20488;-71
2023/08/24 04:32:08;;;;;;;8.17;7.10;;;18.50;99.90;;;;;;5062461;28;20445;-71
2023/08/24 04:34:53;;;;;;;10.07;7.80;;;18.50;99.90;;;;;;5066352;28;20583;-71
2023/08/24 04:37:39;;;;;;;7.80;6.40;;;18.60;99.90;;;;;;5058105;28;20443;-71
2023/08/24 04:40:25;;;;;;;8.10;6.27;;;18.50;99.90;;;;;;5078499;28;20458;-70
2023/08/24 04:43:11;;;;;;;9.10;6.90;;;18.50;99.90;;;;;;5062369;28;20493;-70
2023/08/24 04:45:57;;;;;;;9.63;6.90;;;18.60;99.90;;;;;;5075249;28;20497;-71
2023/08/24 04:48:43;;;;;;;6.73;6.03;;;18.70;99.90;;;;;;5060357;28;20486;-70
2023/08/24 04:51:29;;;;;;;6.83;6.13;;;18.70;99.90;;;;;;5070323;28;20585;-71
2023/08/24 04:54:14;;;;;;;8.80;6.80;;;18.80;99.90;;;;;;5068771;28;20462;-71
2023/08/24 04:57:00;;;;;;;11.10;7.37;;;18.80;99.90;;;;;;5071946;28;20476;-70
2023/08/24 04:59:46;;;;;;;6.70;6.10;;;18.80;99.90;;;;;;5061501;28;20442;-71
2023/08/24 05:02:33;;;;;;;8.10;6.33;;;18.90;99.90;;;;;;5070089;28;20592;-70
2023/08/24 05:05:18;;;;;;;10.30;6.50;;;18.90;99.90;;;;;;5064353;28;21023;-71
2023/08/24 05:08:09;;;;;;;9.03;6.27;;;19.00;99.90;;;;;;5061392;28;20548;-71
2023/08/24 05:10:55;;;;;;;8.83;6.90;;;19.10;99.90;;;;;;5070066;28;20947;-71
2023/08/24 05:13:40;;;;;;;6.63;5.93;;;19.00;99.90;;;;;;5065345;28;21108;-70
2023/08/24 05:16:27;;;;;;;7.40;5.93;;;19.00;99.90;;;;;;5074574;28;20548;-71
2023/08/24 05:19:14;;;;;;;7.03;6.33;;;18.90;99.90;;;;;;5064517;28;20446;-71
2023/08/24 05:21:59;;;;;;;7.40;6.30;;;18.90;99.90;;;;;;5074074;28;20446;-71
2023/08/24 05:24:45;;;;;;;8.37;6.90;;;18.90;99.90;;;;;;5070513;28;20890;-71
2023/08/24 05:27:31;;;;;;;9.40;7.00;;;19.00;99.90;;;;;;5062743;28;20446;-70
2023/08/24 05:30:17;;;;;;;8.20;7.40;;;18.90;99.90;;;;;;5068769;28;20746;-71
2023/08/24 05:33:02;;;;;;;6.90;6.20;;;18.90;99.90;;;;;;5066176;28;21036;-71
2023/08/24 05:35:50;;;;;;;6.83;6.23;;;18.80;99.90;;;;;;5067129;28;20463;-71
2023/08/24 05:38:35;;;;;;;8.77;6.80;;;18.80;99.90;;;;;;5073240;28;20437;-71
2023/08/24 05:41:21;;;;;;;7.40;6.47;;;18.90;99.90;;;;;;5061198;28;20538;-71
2023/08/24 05:44:07;;;;;;;9.23;7.40;;;18.90;99.90;;;;;;5072681;28;20446;-71
2023/08/24 05:46:53;;;;;;;9.73;7.67;;;19.00;99.90;;;;;;5070658;28;20476;-71
2023/08/24 05:49:38;;;;;;;8.03;7.17;;;19.10;99.90;;;;;;5066919;28;20525;-71
2023/08/24 05:52:27;;;;;;;7.43;6.63;;;19.10;99.90;;;;;;5064409;28;20446;-71
2023/08/24 05:55:12;;;;;;;6.70;5.90;;;19.20;99.90;;;;;;5070112;28;20967;-71
2023/08/24 05:57:57;;;;;;;7.37;6.60;;;19.40;99.90;;;;;;5063403;28;20831;-71
2023/08/24 06:00:43;;;;;;;16.37;6.67;;;19.50;99.90;;;;;;5062187;28;20438;-71
2023/08/24 06:03:29;;;;;;;8.00;6.33;;;19.60;99.90;;;;;;5061774;28;20565;-71
2023/08/24 06:06:15;;;;;;;7.37;6.67;;;19.70;99.90;;;;;;5067464;28;20962;-71
2023/08/24 06:09:04;;;;;;;7.70;6.90;;;19.80;99.90;;;;;;5062027;28;20445;-71
2023/08/24 06:11:49;;;;;;;7.90;6.87;;;19.90;99.90;;;;;;5063369;28;20843;-71
2023/08/24 06:14:35;;;;;;;7.37;6.67;;;20.00;99.90;;;;;;5061588;28;20569;-71
2023/08/24 06:17:20;;;;;;;13.03;7.20;;;19.90;99.90;;;;;;5069723;28;20493;-70
2023/08/24 06:20:10;;;;;;;11.80;6.90;;;20.00;99.90;;;;;;5067921;28;21017;-71
2023/08/24 06:22:55;;;;;;;8.23;7.53;;;20.00;99.90;;;;;;5060531;28;20486;-70
2023/08/24 06:25:42;;;;;;;7.67;6.93;;;20.10;99.90;;;;;;5062357;28;20536;-71
2023/08/24 06:28:28;;;;;;;7.10;6.40;;;20.20;99.90;;;;;;5064502;28;20502;-71
2023/08/24 06:31:14;;;;;;;7.63;6.60;;;20.10;99.90;;;;;;5063963;28;20599;-71
2023/08/24 06:34:00;;;;;;;12.67;7.30;;;20.10;99.90;;;;;;5058207;28;20923;-71
2023/08/24 06:36:45;;;;;;;7.47;5.80;;;20.20;99.90;;;;;;5060155;28;20457;-70
2023/08/24 06:39:31;;;;;;;6.77;6.07;;;20.20;99.90;;;;;;5057870;28;20439;-71
2023/08/24 06:42:19;;;;;;;10.10;6.83;;;20.30;99.90;;;;;;5063041;28;20449;-71
2023/08/24 06:45:06;;;;;;;9.93;6.20;;;20.30;99.90;;;;;;5064341;28;20438;-71
2023/08/24 06:47:52;;;;;;;6.90;6.30;;;20.20;99.90;;;;;;5064790;28;20505;-71
2023/08/24 06:50:38;;;;;;;10.47;6.27;;;20.30;99.90;;;;;;5068304;28;20548;-70
2023/08/24 06:53:23;;;;;;;7.90;6.93;;;20.40;99.90;;;;;;5060363;28;20488;-71
2023/08/24 06:56:09;;;;;;;7.17;6.47;;;20.50;99.90;;;;;;5057728;28;20472;-71
2023/08/24 06:58:56;;;;;;;8.83;6.70;;;20.60;99.90;;;;;;5057542;28;20802;-71
2023/08/24 07:01:41;;;;;;;8.00;6.83;;;20.70;99.90;;;;;;5064480;28;20540;-71
2023/08/24 07:04:27;;;;;;;10.73;6.67;;;20.70;99.90;;;;;;5051840;28;20943;-71
2023/08/24 07:07:13;;;;;;;9.90;6.93;;;20.80;99.90;;;;;;5056599;28;20990;-71
2023/08/24 07:09:58;;;;;;;6.70;5.87;;;20.80;99.90;;;;;;5061455;28;20560;-71
2023/08/24 07:12:45;;;;;;;8.53;6.10;;;20.80;99.90;;;;;;5064042;28;21017;-71
2023/08/24 07:15:34;;;;;;;8.83;5.67;;;20.90;99.90;;;;;;5060945;28;20463;-71
2023/08/24 07:18:19;;;;;;;7.20;6.23;;;21.00;99.90;;;;;;5065343;28;20440;-71
2023/08/24 07:21:05;;;;;;;6.00;5.40;;;21.00;99.90;;;;;;5061459;28;20456;-71
2023/08/24 07:23:51;;;;;;;9.27;6.10;;;21.10;99.90;;;;;;5054342;28;20443;-71
2023/08/24 07:26:36;;;;;;;6.70;6.10;;;21.10;99.90;;;;;;5058545;28;20594;-71
2023/08/24 07:29:22;;;;;;;10.23;5.80;;;21.20;99.90;;;;;;5059407;28;20552;-71
2023/08/24 07:32:09;;;;;;;10.17;7.57;;;21.40;99.90;;;;;;5063611;28;20801;-71
2023/08/24 07:34:54;;;;;;;8.13;5.00;;;21.50;99.90;;;;;;5066863;28;20436;-71
2023/08/24 07:37:40;;;;;;;9.70;5.10;;;21.70;99.90;;;;;;5061979;28;20448;-71
2023/08/24 07:40:26;;;;;;;10.50;4.03;;;21.90;99.90;;;;;;5059326;28;20439;-71
2023/08/24 07:43:12;;;;;;;10.33;5.37;;;22.20;99.90;;;;;;5066579;28;20434;-71
2023/08/24 07:45:58;;;;;;;9.30;4.13;;;22.40;99.90;;;;;;5062854;28;20470;-71
2023/08/24 07:48:45;;;;;;;4.90;4.13;;;22.70;99.90;;;;;;5060173;28;20602;-71
2023/08/24 07:51:31;;;;;;;5.57;3.47;;;22.90;99.90;;;;;;5063966;28;20455;-71
2023/08/24 07:54:17;;;;;;;4.93;4.20;;;23.10;99.90;;;;;;5064146;28;20963;-71
2023/08/24 07:57:02;;;;;;;5.73;3.90;;;23.20;99.90;;;;;;5058659;28;20474;-71
2023/08/24 07:59:48;;;;;;;5.40;3.63;;;23.30;99.90;;;;;;5065774;28;20451;-71
2023/08/24 08:02:33;;;;;;;6.43;3.77;;;23.30;99.90;;;;;;5066738;28;20469;-71
2023/08/24 08:05:22;;;;;;;6.33;3.83;;;23.30;99.90;;;;;;5071025;28;20448;-72
2023/08/24 08:08:08;;;;;;;4.90;3.60;;;23.30;99.90;;;;;;5060225;28;20615;-71
2023/08/24 08:11:00;;;;;;;9.03;4.10;;;23.40;99.90;;;;;;5065174;28;21259;-71
2023/08/24 08:13:46;;;;;;;4.57;3.87;;;23.40;99.90;;;;;;5066503;28;20485;-71
2023/08/24 08:16:32;;;;;;;8.00;4.00;;;23.40;99.90;;;;;;5066142;28;20567;-71
2023/08/24 08:19:19;;;;;;;7.47;3.87;;;23.40;99.90;;;;;;5071030;28;21235;-71
2023/08/24 08:22:06;;;;;;;4.60;3.50;;;23.50;99.90;;;;;;5066189;28;20436;-71
2023/08/24 08:24:53;;;;;;;7.77;4.60;;;23.50;99.90;;;;;;5064180;28;20453;-71
2023/08/24 08:27:39;;;;;;;7.53;3.60;;;23.50;99.90;;;;;;5062676;28;20447;-73
2023/08/24 08:30:25;;;;;;;5.57;3.77;;;23.60;99.90;;;;;;5063644;28;20465;-71
2023/08/24 08:33:11;;;;;;;6.60;4.40;;;23.60;99.90;;;;;;5062989;28;20443;-71
2023/08/24 08:35:57;;;;;;;6.17;4.10;;;23.60;99.90;;;;;;5061628;28;21032;-71
2023/08/24 08:38:44;;;;;;;5.33;3.90;;;23.50;99.90;;;;;;5063287;28;21127;-71
2023/08/24 08:41:37;;;;;;;7.00;4.10;;;23.60;99.90;;;;;;5064076;28;20447;-71
2023/08/24 08:44:24;;;;;;;5.90;3.90;;;23.50;99.90;;;;;;5062772;28;20504;-71
2023/08/24 08:47:11;;;;;;;15.03;4.27;;;23.60;99.90;;;;;;5065088;28;20480;-70
2023/08/24 08:49:57;;;;;;;7.40;4.53;;;23.60;99.90;;;;;;5068029;28;20910;-70
2023/08/24 08:52:43;;;;;;;7.60;4.10;;;23.60;99.90;;;;;;5058234;28;20524;-71
2023/08/24 08:55:31;;;;;;;8.57;4.20;;;23.70;99.90;;;;;;5062301;28;20949;-71
2023/08/24 08:58:17;;;;;;;6.30;4.80;;;23.80;99.90;;;;;;5063699;28;20974;-71
2023/08/24 09:01:05;;;;;;;12.23;4.63;;;23.80;99.90;;;;;;5064727;28;20453;-70
2023/08/24 09:03:51;;;;;;;19.70;5.83;;;23.80;99.90;;;;;;5060614;28;20964;-71
2023/08/24 09:06:38;;;;;;;19.53;4.67;;;23.90;99.90;;;;;;5067493;28;20794;-70
2023/08/24 09:09:23;;;;;;;7.40;4.03;;;23.90;99.90;;;;;;5063363;28;20463;-70
2023/08/24 09:12:11;;;;;;;5.23;3.57;;;24.00;99.90;;;;;;5069412;28;20462;-70
2023/08/24 09:14:56;;;;;;;7.60;4.23;;;24.20;99.90;;;;;;5067433;28;20443;-70
2023/08/24 09:17:45;;;;;;;6.93;4.33;;;24.40;99.90;;;;;;5067437;28;20444;-70
2023/08/24 09:20:31;;;;;;;4.63;3.87;;;24.60;99.90;;;;;;5069548;28;21696;-70
2023/08/24 09:23:19;;;;;;;6.00;3.70;;;24.80;99.90;;;;;;5061543;28;20442;-70
2023/08/24 09:26:05;;;;;;;5.07;3.00;;;25.00;99.90;;;;;;5063321;28;21118;-70
2023/08/24 09:28:53;;;;;;;4.47;2.80;;;25.20;91.10;;;;;;5057800;28;20468;-70
2023/08/24 09:31:39;;;;;;;4.27;3.00;;;25.30;92.20;;;;;;5058670;28;21074;-70
2023/08/24 09:34:27;;;;;;;11.30;3.23;;;25.50;84.10;;;;;;5057824;28;21598;-70
2023/08/24 09:37:16;;;;;;;4.50;2.97;;;25.70;89.90;;;;;;5061959;28;20465;-70
2023/08/24 09:40:07;;;;;;;5.57;3.60;;;25.90;85.60;;;;;;5064927;28;20444;-70
2023/08/24 09:42:53;;;;;;;5.03;2.80;;;26.00;87.60;;;;;;5066970;28;20452;-70
2023/08/24 09:45:48;;;;;;;4.10;2.90;;;26.10;73.80;;;;;;5059974;28;21245;-70
2023/08/24 09:48:33;;;;;;;7.10;3.33;;;26.30;71.90;;;;;;5064573;28;20486;-70
2023/08/24 09:51:19;;;;;;;15.50;3.63;;;26.40;65.70;;;;;;5062971;28;20605;-70
2023/08/24 09:54:08;;;;;;;10.03;3.27;;;26.50;64.80;;;;;;5068227;28;20954;-70
2023/08/24 09:56:55;;;;;;;4.37;3.33;;;26.60;70.40;;;;;;5064312;28;20519;-70
2023/08/24 09:59:44;;;;;;;4.60;3.27;;;26.80;70.10;;;;;;5057000;28;20531;-70
2023/08/24 10:02:36;;;;;;;5.07;3.40;;;26.80;67.50;;;;;;5062502;28;20446;-70
2023/08/24 10:05:25;;;;;;;5.93;3.07;;;26.80;64.60;;;;;;5063328;28;21214;-70
2023/08/24 10:08:11;;;;;;;9.77;3.33;;;26.90;63.40;;;;;;5062614;28;20581;-70
2023/08/24 10:10:59;;;;;;;7.30;3.20;;;27.00;66.50;;;;;;5063684;28;20473;-70
2023/08/24 10:13:51;;;;;;;9.70;3.53;;;27.00;63.80;;;;;;5055541;28;20443;-70
2023/08/24 10:16:37;;;;;;;4.43;2.80;;;27.10;69.00;;;;;;5057610;28;20469;-70
2023/08/24 10:19:25;;;;;;;6.30;3.03;;;27.20;61.20;;;;;;5064163;28;20448;-70
2023/08/24 10:22:11;;;;;;;10.43;3.60;;;27.20;61.40;;;;;;5073598;28;20551;-70
2023/08/24 10:24:58;;;;;;;8.43;3.63;;;27.40;56.50;;;;;;5060356;28;20416;-70
2023/08/24 10:27:45;;;;;;;8.37;3.60;;;27.50;47.80;;;;;;5071270;28;20459;-70
2023/08/24 10:30:31;;;;;;;8.20;3.57;;;27.60;54.60;;;;;;5062873;28;20474;-70
2023/08/24 10:33:17;;;;;;;4.13;3.20;;;27.60;53.70;;;;;;5063142;28;20439;-70
2023/08/24 10:36:07;;;;;;;4.03;3.03;;;27.70;54.10;;;;;;5065703;28;20495;-70
2023/08/24 10:38:58;;;;;;;12.40;3.50;;;27.90;56.00;;;;;;5067335;28;20465;-70
2023/08/24 10:41:50;;;;;;;6.03;3.53;;;28.00;52.00;;;;;;5068848;28;20474;-71
2023/08/24 10:44:38;;;;;;;4.90;3.43;;;28.10;49.40;;;;;;5070240;28;20983;-70
2023/08/24 10:47:25;;;;;;;8.00;3.30;;;28.20;44.20;;;;;;5073141;28;21013;-70
2023/08/24 10:50:11;;;;;;;6.40;3.30;;;28.30;38.60;;;;;;5071524;28;20531;-70
2023/08/24 10:52:59;;;;;;;4.63;3.10;;;28.40;42.80;;;;;;5067401;28;22040;-70
2023/08/24 10:55:45;;;;;;;4.13;2.93;;;28.60;45.50;;;;;;5069377;28;20462;-70
2023/08/24 10:58:35;;;;;;;4.30;3.07;;;28.70;38.90;;;;;;5064119;28;20559;-70
2023/08/24 11:01:22;;;;;;;3.67;2.87;;;28.80;39.60;;;;;;5070054;28;20946;-70
2023/08/24 11:04:08;;;;;;;10.33;3.13;;;28.80;36.30;;;;;;5068562;28;20438;-70
2023/08/24 11:06:55;;;;;;;16.60;3.53;;;29.00;37.70;;;;;;5070593;28;20469;-70
2023/08/24 11:09:49;;;;;;;10.40;3.80;;;29.00;38.20;;;;;;5060333;28;20481;-70
2023/08/24 11:13:08;;;;;;;6.77;3.70;;;29.10;39.30;;;;;;5068848;28;20511;-70
2023/08/24 11:15:57;;;;;;;4.70;3.07;;;29.20;39.10;;;;;;5061243;28;20996;-70
2023/08/24 11:18:44;;;;;;;7.60;3.53;;;29.30;35.70;;;;;;5061123;28;20954;-70
2023/08/24 11:21:29;;;;;;;9.43;3.40;;;29.40;34.00;;;;;;5069259;28;20636;-70
2023/08/24 11:24:16;;;;;;;5.77;2.90;;;29.50;30.00;;;;;;5063550;28;20452;-70
2023/08/24 11:27:04;;;;;;;7.27;3.77;;;29.60;32.00;;;;;;5060093;28;20463;-70
2023/08/24 11:30:00;;;;;;;5.37;3.13;;;29.70;30.00;;;;;;5071138;28;21129;-70
2023/08/24 11:32:52;;;;;;;4.73;3.30;;;29.60;28.30;;;;;;5065175;28;20449;-70
2023/08/24 11:35:40;;;;;;;7.50;3.33;;;29.70;29.70;;;;;;5069731;28;20560;-70
2023/08/24 11:38:25;;;;;;;12.63;3.80;;;29.70;27.60;;;;;;5065984;28;20579;-71
2023/08/24 11:41:12;;;;;;;5.63;3.83;;;29.70;25.50;;;;;;5070008;28;20573;-71
2023/08/24 11:44:03;;;;;;;5.20;3.07;;;29.70;25.20;;;;;;5066343;28;20447;-71
2023/08/24 11:46:48;;;;;;;5.70;3.97;;;29.80;32.20;;;;;;5086130;22;20496;-76
2023/08/24 11:49:34;;;;;;;7.00;3.23;;;29.80;31.30;;;;;;5075466;28;20588;-75
2023/08/24 11:52:20;;;;;;;8.13;3.90;;;29.70;35.50;;;;;;5073913;28;20436;-77
2023/08/24 11:55:08;;;;;;;5.43;3.60;;;29.60;34.30;;;;;;5075277;28;20512;-76
2023/08/24 11:57:55;;;;;;;5.47;3.60;;;29.60;34.30;;;;;;5048970;28;20445;-77
2023/08/24 12:00:43;;;;;;;6.23;3.97;;;29.60;39.90;;;;;;5058501;28;20445;-76
2023/08/24 12:03:29;;;;;;;6.23;3.23;;;29.50;39.00;;;;;;5050889;28;20450;-76
2023/08/24 12:06:17;;;;;;;5.20;3.40;;;29.30;38.10;;;;;;5059789;28;20459;-76
2023/08/24 12:09:07;;;;;;;4.80;3.20;;;29.20;35.90;;;;;;5050974;28;20462;-76
2023/08/24 12:11:57;;;;;;;8.27;3.57;;;29.10;33.90;;;;;;5057675;28;20452;-77
2023/08/24 12:14:43;;;;;;;5.53;3.50;;;29.10;34.80;;;;;;5040170;28;20567;-76
2023/08/24 12:17:30;;;;;;;5.53;4.00;;;29.00;28.90;;;;;;5044731;28;20585;-77
2023/08/24 12:20:21;;;;;;;7.63;3.60;;;29.10;33.90;;;;;;5046209;28;20432;-77
2023/08/24 12:23:07;;;;;;;5.60;3.53;;;29.10;37.90;;;;;;5054448;28;20448;-76
2023/08/24 12:25:55;;;;;;;10.77;3.80;;;29.20;49.70;;;;;;5056808;28;20460;-77
2023/08/24 12:28:41;;;;;;;5.77;3.60;;;29.20;48.80;;;;;;5051252;28;20524;-75
2023/08/24 12:31:28;;;;;;;10.30;3.90;;;29.20;60.00;;;;;;5049656;28;20477;-77
2023/08/24 12:34:16;;;;;;;6.27;4.10;;;29.10;66.40;;;;;;5050430;28;20572;-76
2023/08/24 12:37:02;;;;;;;8.53;3.83;;;29.10;61.50;;;;;;5046672;28;20459;-76
2023/08/24 12:39:48;;;;;;;5.63;4.00;;;29.10;61.60;;;;;;5048873;28;20443;-77
2023/08/24 12:42:35;;;;;;;4.80;3.40;;;29.10;48.70;;;;;;5053405;28;20444;-77
2023/08/24 12:45:20;;;;;;;5.70;3.97;;;29.10;47.20;;;;;;5054212;28;20656;-77
2023/08/24 12:48:06;;;;;;;7.00;3.40;;;29.10;53.00;;;;;;5051112;28;20573;-76
2023/08/24 12:50:54;;;;;;;5.40;4.00;;;29.10;56.20;;;;;;5047816;28;20566;-74
2023/08/24 12:53:39;;;;;;;5.40;4.00;;;29.10;44.30;;;;;;5046802;28;20579;-76
2023/08/24 12:56:25;;;;;;;9.60;4.10;;;29.10;61.80;;;;;;5048751;28;20467;-77
2023/08/24 12:59:10;;;;;;;5.67;3.60;;;29.10;62.80;;;;;;5047094;28;20446;-75
2023/08/24 13:01:56;;;;;;;6.07;4.50;;;29.10;46.30;;;;;;5049758;28;20441;-77
2023/08/24 13:04:41;;;;;;;5.77;3.73;;;29.10;43.30;;;;;;5051631;28;21075;-77
2023/08/24 13:07:28;;;;;;;6.07;4.53;;;29.10;50.10;;;;;;5056226;28;21083;-77
2023/08/24 13:10:14;;;;;;;7.00;4.13;;;29.10;48.20;;;;;;5045170;28;20469;-77
2023/08/24 13:13:00;;;;;;;7.40;4.10;;;29.10;59.10;;;;;;5051316;28;20444;-77
2023/08/24 13:15:45;;;;;;;5.67;3.60;;;29.10;74.60;;;;;;5049437;28;20516;-74
2023/08/24 13:18:31;;;;;;;7.40;4.07;;;29.10;83.20;;;;;;5051771;28;20574;-77
2023/08/24 13:21:17;;;;;;;6.00;3.93;;;29.00;73.80;;;;;;5050145;28;20459;-77
2023/08/24 13:24:04;;;;;;;12.63;4.43;;;29.00;65.80;;;;;;5051457;28;20532;-74
2023/08/24 13:26:49;;;;;;;9.87;4.87;;;28.90;79.40;;;;;;5047685;28;20466;-77
2023/08/24 13:29:35;;;;;;;7.00;4.63;;;28.90;90.10;;;;;;5045198;28;20430;-77
2023/08/24 13:32:21;;;;;;;7.60;4.43;;;28.80;87.90;;;;;;5044027;28;20448;-74
2023/08/24 13:35:08;;;;;;;6.80;4.70;;;28.70;90.60;;;;;;5050768;28;20450;-77
2023/08/24 13:37:54;;;;;;;10.10;4.67;;;28.60;90.40;;;;;;5044044;28;20595;-75
2023/08/24 13:40:41;;;;;;;7.40;4.30;;;28.60;93.80;;;;;;5051919;28;20860;-75
2023/08/24 13:43:27;;;;;;;5.80;4.40;;;28.30;93.90;;;;;;5040995;28;21025;-76
2023/08/24 13:46:12;;;;;;;6.10;4.90;;;28.10;94.10;;;;;;5048816;28;20483;-77
2023/08/24 13:48:58;;;;;;;8.80;4.30;;;28.10;97.90;;;;;;5048673;28;20438;-77
2023/08/24 13:51:44;;;;;;;16.50;4.73;;;27.90;99.30;;;;;;5047882;28;21031;-77
2023/08/24 13:54:30;;;;;;;8.50;5.13;;;27.80;99.70;;;;;;5039560;28;20551;-75
2023/08/24 13:57:17;;;;;;;6.77;4.63;;;27.90;99.90;;;;;;5037639;28;21003;-76
2023/08/24 14:00:04;;;;;;;11.10;4.80;;;28.30;97.90;;;;;;5055123;28;20447;-76
2023/08/24 14:02:50;;;;;;;6.10;4.10;;;28.60;91.40;;;;;;5048481;28;20491;-75
2023/08/24 14:05:40;;;;;;;8.67;5.37;;;28.70;80.90;;;;;;5045929;28;20447;-75
2023/08/24 14:08:26;;;;;;;6.97;5.10;;;28.80;86.10;;;;;;5041383;28;20459;-77
2023/08/24 14:11:11;;;;;;;7.20;5.23;;;28.70;91.60;;;;;;5043684;28;20474;-77
2023/08/24 14:13:59;;;;;;;5.07;4.23;;;28.60;94.10;;;;;;5042475;28;20517;-77
2023/08/24 14:16:44;;;;;;;7.13;5.13;;;28.50;97.50;;;;;;5050912;28;20465;-75
2023/08/24 14:19:29;;;;;;;7.57;5.13;;;28.30;99.50;;;;;;5058443;28;20932;-77
2023/08/24 14:22:15;;;;;;;6.17;4.40;;;28.00;99.90;;;;;;5044634;28;20441;-77
2023/08/24 14:25:01;;;;;;;8.23;5.03;;;27.90;99.90;;;;;;5052657;28;20444;-77
2023/08/24 14:27:47;;;;;;;6.10;5.10;;;27.80;99.90;;;;;;5041485;28;20461;-76